Time;durP1;ratioP1;P1;durP2;ratioP2;P2;SDS_P1;SDS_P2;PMS_P1;PMS_P2;Temp;Humidity;BMP_temperature;BMP_pressure;BME280_temperature;BME280_humidity;BME280_pressure;Samples;Min_cycle;Max_cycle;Signal;HPM_P1;HPM_P2
2022/07/26 00:02:50;;;;;;;4.03;2.53;;;;;;;27.94;40.20;98585.25;6922335;28;20357;-79
2022/07/26 00:06:13;;;;;;;4.60;2.90;;;;;;;27.95;40.13;98587.69;6922111;28;20216;-78
2022/07/26 00:09:35;;;;;;;3.40;3.10;;;;;;;27.47;41.43;98595.19;6921805;28;20878;-78
2022/07/26 00:12:56;;;;;;;5.17;3.40;;;;;;;26.93;43.29;98581.66;6922225;28;20337;-79
2022/07/26 00:16:18;;;;;;;3.70;2.97;;;;;;;27.21;42.44;98576.81;6921564;28;20213;-79
2022/07/26 00:19:40;;;;;;;4.13;3.00;;;;;;;26.94;43.74;98590.78;6923823;28;20211;-78
2022/07/26 00:23:03;;;;;;;4.90;3.40;;;;;;;26.85;43.63;98603.75;6924225;28;20732;-79
2022/07/26 00:26:25;;;;;;;4.20;3.10;;;;;;;26.80;44.08;98603.88;6924935;28;20256;-79
2022/07/26 00:29:46;;;;;;;6.73;3.83;;;;;;;26.14;45.71;98603.78;6927715;28;20241;-79
2022/07/26 00:33:08;;;;;;;5.97;3.30;;;;;;;25.93;46.26;98600.63;6920766;28;20252;-79
2022/07/26 00:36:29;;;;;;;4.10;2.90;;;;;;;26.63;44.06;98598.22;6921900;28;20281;-78
2022/07/26 00:39:52;;;;;;;5.13;2.60;;;;;;;27.10;42.33;98603.91;6921137;28;20291;-79
2022/07/26 00:43:14;;;;;;;7.30;3.07;;;;;;;27.16;42.14;98594.38;6921875;28;20317;-79
2022/07/26 00:46:35;;;;;;;2.50;2.30;;;;;;;27.37;41.60;98603.75;6921294;28;20246;-79
2022/07/26 00:49:57;;;;;;;5.10;2.60;;;;;;;27.35;41.42;98597.72;6921141;28;20295;-79
2022/07/26 00:53:20;;;;;;;5.93;2.63;;;;;;;27.40;41.67;98588.47;6922428;28;20650;-79
2022/07/26 00:56:43;;;;;;;4.30;2.50;;;;;;;27.60;41.92;98599.00;6924049;28;20223;-80
2022/07/26 01:00:07;;;;;;;3.50;2.90;;;;;;;27.17;43.27;98603.47;6923503;28;20840;-80
2022/07/26 01:03:29;;;;;;;4.90;2.90;;;;;;;26.15;45.86;98610.94;6923611;28;20279;-79
2022/07/26 01:06:51;;;;;;;5.63;3.47;;;;;;;26.26;45.70;98595.75;6924556;28;20306;-80
2022/07/26 01:10:12;;;;;;;4.17;3.17;;;;;;;26.41;45.62;98596.22;6922982;28;20212;-79
2022/07/26 01:13:35;;;;;;;5.13;3.07;;;;;;;26.66;44.64;98601.16;6922384;28;20385;-79
2022/07/26 01:16:57;;;;;;;3.50;2.80;;;;;;;26.30;45.76;98607.84;6922901;28;20672;-80
2022/07/26 01:20:18;;;;;;;4.17;2.40;;;;;;;26.87;44.58;98607.00;6921937;28;20204;-79
2022/07/26 01:23:42;;;;;;;3.40;3.10;;;;;;;26.88;44.75;98630.78;6923447;28;20238;-80
2022/07/26 01:27:04;;;;;;;2.97;2.63;;;;;;;26.56;44.97;98651.22;6940102;28;20260;-79
2022/07/26 01:30:25;;;;;;;8.07;3.10;;;;;;;25.42;52.82;98671.75;6932472;28;20207;-80
2022/07/26 01:33:47;;;;;;;6.90;2.67;;;;;;;24.32;56.45;98668.00;6924216;28;20286;-80
2022/07/26 01:37:09;;;;;;;4.70;2.57;;;;;;;24.43;57.61;98682.47;6925519;28;20239;-80
2022/07/26 01:40:32;;;;;;;4.53;2.93;;;;;;;24.64;56.47;98681.88;6935809;28;20258;-80
2022/07/26 01:43:53;;;;;;;4.83;3.03;;;;;;;24.69;57.63;98679.06;6939818;28;20204;-80
2022/07/26 01:47:15;;;;;;;4.83;2.90;;;;;;;25.01;57.49;98681.84;6934562;28;20209;-81
2022/07/26 01:50:38;;;;;;;3.80;3.07;;;;;;;24.55;57.69;98675.38;6922998;28;20215;-80
2022/07/26 01:54:00;;;;;;;3.40;3.00;;;;;;;24.70;57.02;98669.66;6923352;28;20231;-79
2022/07/26 01:57:23;;;;;;;4.30;2.33;;;;;;;24.39;56.00;98664.88;6922971;28;20207;-79
2022/07/26 02:00:44;;;;;;;3.33;2.60;;;;;;;24.77;54.58;98667.34;6923277;28;20235;-80
2022/07/26 02:04:06;;;;;;;2.70;2.47;;;;;;;25.19;55.10;98664.41;6923674;28;20228;-80
2022/07/26 02:07:29;;;;;;;4.00;2.87;;;;;;;25.22;54.79;98663.84;6923699;28;20215;-80
2022/07/26 02:11:03;;;;;;;3.27;2.70;;;;;;;25.08;55.40;98657.44;6923172;28;20239;-80
2022/07/26 02:14:26;;;;;;;4.67;2.93;;;;;;;25.04;54.84;98645.38;6923657;28;20227;-80
2022/07/26 02:17:50;;;;;;;2.97;2.57;;;;;;;25.11;55.12;98640.28;6922970;28;20248;-81
2022/07/26 02:21:11;;;;;;;3.83;3.00;;;;;;;25.15;55.65;98629.47;6923379;28;20231;-79
2022/07/26 02:24:33;;;;;;;2.57;2.37;;;;;;;25.12;54.60;98605.25;6923887;28;20297;-80
2022/07/26 02:27:55;;;;;;;2.77;2.57;;;;;;;25.24;54.43;98642.28;6923207;28;20604;-80
2022/07/26 02:31:18;;;;;;;3.50;2.90;;;;;;;24.74;56.27;98645.06;6939833;28;20269;-79
2022/07/26 02:34:39;;;;;;;2.83;2.63;;;;;;;24.77;56.90;98642.53;6951065;28;20214;-80
2022/07/26 02:38:02;;;;;;;4.30;2.83;;;;;;;24.76;55.92;98629.03;6950902;28;20225;-80
2022/07/26 02:41:24;;;;;;;3.37;3.03;;;;;;;24.73;56.71;98635.97;6951717;28;20225;-80
2022/07/26 02:44:45;;;;;;;5.10;3.23;;;;;;;23.71;57.50;98553.41;6951656;28;20226;-80
2022/07/26 02:48:08;;;;;;;3.70;3.00;;;;;;;24.23;57.89;98633.13;6950981;28;20260;-80
2022/07/26 02:51:30;;;;;;;3.83;2.70;;;;;;;24.74;56.87;98637.63;6951322;28;20253;-80
2022/07/26 02:54:51;;;;;;;2.77;2.57;;;;;;;24.81;56.36;98615.16;6951837;28;20223;-79
2022/07/26 02:58:13;;;;;;;3.00;2.60;;;;;;;25.15;55.25;98633.06;6962928;28;20211;-81
2022/07/26 03:01:35;;;;;;;3.10;2.73;;;;;;;25.06;55.93;98640.38;6969786;28;20232;-80
2022/07/26 03:04:58;;;;;;;3.33;2.87;;;;;;;25.25;55.63;98632.09;6946939;28;20209;-80
2022/07/26 03:08:19;;;;;;;3.10;2.87;;;;;;;25.06;55.49;98601.75;6948044;28;20214;-80
2022/07/26 03:11:41;;;;;;;4.13;3.00;;;;;;;24.78;57.53;98619.34;6952322;28;20224;-81
2022/07/26 03:15:02;;;;;;;2.67;2.47;;;;;;;24.97;54.71;98594.47;6951325;28;20267;-80
2022/07/26 03:18:24;;;;;;;3.10;2.80;;;;;;;25.26;55.17;98617.94;6951289;28;20234;-81
2022/07/26 03:21:47;;;;;;;3.80;2.73;;;;;;;25.46;54.52;98625.88;6950779;28;20728;-80
2022/07/26 03:25:09;;;;;;;3.20;2.90;;;;;;;25.34;54.75;98633.00;6950785;28;20219;-80
2022/07/26 03:28:31;;;;;;;4.57;3.00;;;;;;;24.87;56.18;98617.53;6951113;28;20679;-80
2022/07/26 03:31:52;;;;;;;3.60;2.50;;;;;;;24.94;56.56;98633.69;6950689;28;20221;-81
2022/07/26 03:35:14;;;;;;;3.27;2.97;;;;;;;24.98;56.16;98629.22;6957403;28;20199;-81
2022/07/26 03:38:37;;;;;;;4.23;2.90;;;;;;;25.06;55.64;98640.38;6975792;28;20201;-81
2022/07/26 03:41:58;;;;;;;6.03;3.00;;;;;;;25.16;55.47;98631.09;6954931;28;20316;-81
2022/07/26 03:45:20;;;;;;;3.03;2.70;;;;;;;24.86;56.53;98639.91;6955064;28;20272;-80
2022/07/26 03:48:41;;;;;;;4.37;3.07;;;;;;;24.78;56.99;98640.59;6952646;28;20284;-80
2022/07/26 03:52:03;;;;;;;3.00;2.70;;;;;;;24.57;57.42;98631.00;6953232;28;20723;-80
2022/07/26 03:59:07;;;;;;;3.53;2.50;;;;;;;24.78;56.55;98649.66;6953237;28;20187;-80
2022/07/26 04:02:28;;;;;;;4.70;2.90;;;;;;;24.68;56.51;98646.25;6953178;28;20733;-80
2022/07/26 04:05:50;;;;;;;3.37;3.07;;;;;;;24.64;56.13;98648.81;6953318;28;20207;-80
2022/07/26 04:09:12;;;;;;;4.83;2.90;;;;;;;24.64;57.16;98657.06;6952706;28;20298;-80
2022/07/26 04:12:35;;;;;;;4.20;2.73;;;;;;;25.03;55.43;98654.78;6952421;28;20234;-80
2022/07/26 04:15:57;;;;;;;3.23;2.93;;;;;;;25.21;54.95;98655.84;6952689;28;20887;-81
2022/07/26 04:19:18;;;;;;;4.03;3.27;;;;;;;25.13;54.78;98640.00;6950482;28;20681;-81
2022/07/26 04:22:40;;;;;;;4.30;2.80;;;;;;;25.03;55.49;98652.03;6950903;28;20603;-80
2022/07/26 04:26:02;;;;;;;3.97;3.30;;;;;;;24.62;56.53;98659.31;6952476;28;20199;-80
2022/07/26 04:29:25;;;;;;;3.80;2.93;;;;;;;24.11;58.20;98663.88;6948186;28;20299;-80
2022/07/26 04:32:46;;;;;;;3.60;3.00;;;;;;;23.98;59.21;98659.09;6922368;28;20586;-79
2022/07/26 04:36:08;;;;;;;3.93;3.03;;;;;;;24.51;57.29;98648.69;6923274;28;20220;-80
2022/07/26 04:39:30;;;;;;;3.67;3.00;;;;;;;24.34;57.39;98657.50;6923184;28;20267;-79
2022/07/26 04:42:52;;;;;;;2.60;2.40;;;;;;;24.91;56.01;98668.22;6923658;28;20782;-79
2022/07/26 04:46:14;;;;;;;3.30;3.00;;;;;;;24.53;56.42;98674.03;6923972;28;20277;-79
2022/07/26 04:49:36;;;;;;;4.47;3.00;;;;;;;24.09;57.79;98654.25;6922811;28;20754;-78
2022/07/26 04:52:58;;;;;;;3.43;2.80;;;;;;;24.54;57.27;98670.16;6923642;28;20323;-80
2022/07/26 04:56:19;;;;;;;3.30;2.63;;;;;;;24.86;55.63;98667.47;6923146;28;20609;-79
2022/07/26 04:59:41;;;;;;;3.73;3.00;;;;;;;24.80;55.88;98665.94;6922205;28;20691;-80
2022/07/26 05:03:04;;;;;;;3.77;2.87;;;;;;;24.21;56.86;98657.41;6925183;28;20323;-79
2022/07/26 05:06:26;;;;;;;2.90;2.70;;;;;;;24.16;57.15;98693.28;6922976;28;20238;-79
2022/07/26 05:09:47;;;;;;;3.53;2.27;;;;;;;24.54;56.25;98656.38;6922125;28;20274;-80
2022/07/26 05:13:09;;;;;;;2.80;2.60;;;;;;;25.04;55.22;98685.94;6922518;28;20235;-78
2022/07/26 05:16:30;;;;;;;4.03;2.63;;;;;;;25.09;55.46;98681.19;6922387;28;20232;-79
2022/07/26 05:19:53;;;;;;;2.90;2.70;;;;;;;25.34;54.24;98689.03;6922127;28;20212;-79
2022/07/26 05:23:15;;;;;;;5.47;2.83;;;;;;;26.02;52.37;98680.84;6922754;28;20220;-79
2022/07/26 05:26:37;;;;;;;2.50;2.30;;;;;;;26.40;51.32;98685.00;6922566;28;20581;-79
2022/07/26 05:29:58;;;;;;;4.47;2.40;;;;;;;26.23;51.97;98682.88;6922221;28;20265;-79
2022/07/26 05:33:20;;;;;;;3.43;2.70;;;;;;;25.24;54.47;98696.69;6921873;28;20228;-80
2022/07/26 05:36:43;;;;;;;3.30;2.70;;;;;;;25.65;53.88;98681.81;6923207;28;20823;-80
2022/07/26 05:40:06;;;;;;;3.17;2.70;;;;;;;26.21;52.24;98674.09;6922631;28;20215;-80
2022/07/26 05:43:28;;;;;;;4.90;2.50;;;;;;;26.19;52.99;98687.38;6923795;28;20756;-79
2022/07/26 05:46:49;;;;;;;3.47;2.60;;;;;;;26.93;51.15;98680.47;6943208;28;20213;-80
2022/07/26 05:50:11;;;;;;;5.27;3.13;;;;;;;26.72;50.97;98674.59;6945385;28;20204;-80
2022/07/26 05:53:34;;;;;;;4.20;2.57;;;;;;;26.26;51.77;98686.97;6938908;28;20704;-80
2022/07/26 05:56:55;;;;;;;4.40;2.70;;;;;;;26.34;51.54;98684.31;6925638;28;20285;-80
2022/07/26 06:00:17;;;;;;;5.53;2.70;;;;;;;25.74;52.50;98688.28;6943132;28;20534;-80
2022/07/26 06:03:54;;;;;;;3.17;2.53;;;;;;;26.31;51.06;98664.75;6917055;28;20208;-80
2022/07/26 06:07:16;;;;;;;3.00;2.70;;;;;;;27.15;49.80;98681.31;6950314;28;20205;-80
2022/07/26 06:10:38;;;;;;;3.13;2.67;;;;;;;26.31;50.49;98682.13;6950407;28;20254;-80
2022/07/26 06:14:00;;;;;;;4.57;2.87;;;;;;;26.42;51.44;98685.53;6951096;28;20774;-80
2022/07/26 06:17:22;;;;;;;4.83;3.00;;;;;;;26.10;51.54;98677.34;6950881;28;20209;-80
2022/07/26 06:20:45;;;;;;;3.10;2.80;;;;;;;26.41;51.83;98667.28;6951662;28;20215;-80
2022/07/26 06:24:07;;;;;;;4.53;2.97;;;;;;;26.71;50.69;98699.84;6951628;28;20303;-80
2022/07/26 06:27:31;;;;;;;3.20;2.57;;;;;;;27.47;48.93;98688.50;6952360;28;20229;-80
2022/07/26 06:30:53;;;;;;;3.07;2.40;;;;;;;27.79;46.08;98679.94;6963695;28;20248;-80
2022/07/26 06:34:15;;;;;;;5.70;2.70;;;;;;;27.84;43.56;98685.34;6966838;28;20731;-80
2022/07/26 06:37:37;;;;;;;5.40;2.53;;;;;;;28.21;43.78;98691.19;6959898;28;20687;-80
2022/07/26 06:40:59;;;;;;;2.53;2.30;;;;;;;28.65;42.37;98692.91;6949332;28;20215;-79
2022/07/26 06:44:22;;;;;;;6.77;2.50;;;;;;;28.45;43.06;98688.81;6952997;28;20242;-81
2022/07/26 06:47:44;;;;;;;5.07;2.13;;;;;;;28.11;42.94;98662.91;6944964;28;20208;-80
2022/07/26 06:51:08;;;;;;;3.97;2.40;;;;;;;28.76;41.67;98672.84;6927727;28;20324;-80
2022/07/26 06:54:30;;;;;;;4.40;2.43;;;;;;;29.23;40.84;98702.41;6927755;28;20375;-80
2022/07/26 06:57:52;;;;;;;2.60;2.10;;;;;;;28.37;41.01;98672.97;6926255;28;20211;-80
2022/07/26 07:01:15;;;;;;;3.97;2.50;;;;;;;28.76;41.35;98683.94;6927667;28;20230;-80
2022/07/26 07:04:36;;;;;;;2.70;2.40;;;;;;;28.81;39.52;98685.72;6927073;28;20230;-80
2022/07/26 07:07:58;;;;;;;4.10;2.20;;;;;;;29.54;38.89;98689.16;6925474;28;20227;-79
2022/07/26 07:11:19;;;;;;;4.97;1.87;;;;;;;29.94;37.65;98693.25;6926753;28;20241;-79
2022/07/26 07:14:41;;;;;;;6.03;2.63;;;;;;;30.69;36.48;98690.44;6926644;28;20297;-80
2022/07/26 07:18:04;;;;;;;3.27;2.20;;;;;;;30.41;36.01;98675.38;6926216;28;20231;-80
2022/07/26 07:21:26;;;;;;;3.50;2.17;;;;;;;29.92;37.24;98697.53;6926502;28;20258;-80
2022/07/26 07:24:47;;;;;;;2.57;2.00;;;;;;;30.24;35.59;98678.25;6926912;28;20247;-80
2022/07/26 07:28:12;;;;;;;4.20;1.90;;;;;;;29.31;36.51;98687.69;6925904;28;20201;-80
2022/07/26 07:31:34;;;;;;;4.53;2.00;;;;;;;29.83;35.84;98686.44;6924988;28;20640;-80
2022/07/26 07:34:57;;;;;;;9.57;2.20;;;;;;;29.67;35.54;98635.31;6925921;28;20235;-79
2022/07/26 07:38:18;;;;;;;2.90;1.80;;;;;;;30.23;33.98;98684.16;6925632;28;20737;-80
2022/07/26 07:41:40;;;;;;;4.97;1.80;;;;;;;30.32;33.00;98676.59;6926277;28;20295;-80
2022/07/26 07:45:01;;;;;;;4.00;1.70;;;;;;;29.48;32.98;98689.63;6926502;28;20664;-79
2022/07/26 07:48:23;;;;;;;4.30;1.90;;;;;;;30.27;32.90;98665.66;6925448;28;20262;-79
2022/07/26 07:51:46;;;;;;;3.00;1.90;;;;;;;30.91;31.63;98670.59;6926350;28;20724;-79
2022/07/26 07:55:08;;;;;;;3.37;1.60;;;;;;;30.72;31.14;98670.25;6933031;28;20257;-79
2022/07/26 07:58:30;;;;;;;3.13;1.70;;;;;;;31.52;30.34;98664.16;6950408;28;20186;-80
2022/07/26 08:01:51;;;;;;;2.47;1.60;;;;;;;31.35;31.16;98674.66;6929943;28;20250;-80
2022/07/26 08:05:14;;;;;;;3.70;1.70;;;;;;;30.34;30.45;98677.88;6925645;28;20242;-80
2022/07/26 08:08:37;;;;;;;2.53;1.50;;;;;;;30.42;29.78;98657.53;6925061;28;20292;-80
2022/07/26 08:11:59;;;;;;;3.00;1.40;;;;;;;31.22;28.97;98659.06;6925397;28;20718;-80
2022/07/26 08:15:22;;;;;;;5.13;1.43;;;;;;;30.72;30.11;98663.91;6925095;28;20747;-80
2022/07/26 08:18:46;;;;;;;3.87;1.80;;;;;;;30.47;30.38;98654.53;6925213;28;20316;-80
2022/07/26 08:22:08;;;;;;;4.87;1.57;;;;;;;30.94;29.71;98669.94;6926036;28;20241;-79
2022/07/26 08:25:31;;;;;;;3.83;1.20;;;;;;;29.99;30.34;98667.22;6926069;28;20259;-79
2022/07/26 08:28:52;;;;;;;6.07;1.40;;;;;;;29.41;31.18;98659.56;6925588;28;20747;-79
2022/07/26 08:32:14;;;;;;;1.93;1.33;;;;;;;29.52;30.88;98635.00;6924894;28;20594;-80
2022/07/26 08:35:36;;;;;;;2.87;1.23;;;;;;;29.99;30.54;98676.41;6925384;28;20302;-80
2022/07/26 08:38:57;;;;;;;2.80;1.37;;;;;;;29.94;30.31;98676.59;6925107;28;20198;-80
2022/07/26 08:42:22;;;;;;;2.70;1.37;;;;;;;30.28;30.39;98665.31;6925697;28;20230;-79
2022/07/26 08:45:44;;;;;;;1.70;1.50;;;;;;;30.23;30.32;98668.28;6925439;28;20210;-79
2022/07/26 08:49:08;;;;;;;1.93;1.40;;;;;;;30.24;30.28;98675.47;6924316;28;20210;-80
2022/07/26 08:52:30;;;;;;;2.97;1.40;;;;;;;30.34;30.45;98677.88;6927778;28;20237;-80
2022/07/26 08:55:56;;;;;;;2.67;1.30;;;;;;;30.26;30.13;98664.03;6952241;28;20718;-80
2022/07/26 08:59:20;;;;;;;1.53;1.20;;;;;;;30.21;30.09;98662.25;6952306;28;20203;-80
2022/07/26 09:02:42;;;;;;;5.40;1.50;;;;;;;30.30;29.04;98674.13;6952882;28;20223;-79
2022/07/26 09:06:17;;;;;;;3.63;1.50;;;;;;;29.04;31.01;98688.06;6952585;28;20207;-80
2022/07/26 09:09:40;;;;;;;3.20;1.30;;;;;;;29.21;30.95;98690.00;6951920;28;20206;-79
2022/07/26 09:13:01;;;;;;;2.57;1.50;;;;;;;29.11;30.53;98682.81;6952619;28;20244;-80
2022/07/26 09:16:25;;;;;;;3.97;1.70;;;;;;;29.07;31.87;98698.50;6952071;28;20232;-80
2022/07/26 09:20:03;;;;;;;5.23;1.30;;;;;;;30.33;29.39;98662.34;6950568;28;20349;-79
2022/07/26 09:23:25;;;;;;;3.20;1.53;;;;;;;30.76;28.60;98682.38;6952630;28;20688;-80
2022/07/26 09:26:55;;;;;;;1.70;1.20;;;;;;;29.51;29.99;98686.19;6951857;28;20685;-79
2022/07/26 09:30:17;;;;;;;4.33;1.30;;;;;;;30.92;28.72;98694.53;6951697;28;20813;-79
2022/07/26 09:33:45;;;;;;;2.40;1.37;;;;;;;30.85;28.54;98694.22;6950756;28;20753;-80
2022/07/26 09:37:06;;;;;;;1.50;1.40;;;;;;;31.48;28.10;98684.69;6952120;28;20232;-80
2022/07/26 09:40:33;;;;;;;2.73;1.50;;;;;;;31.50;26.73;98685.97;6951473;28;20228;-80
2022/07/26 09:43:55;;;;;;;3.10;1.50;;;;;;;30.94;28.49;98688.59;6952095;28;20695;-80
2022/07/26 09:47:17;;;;;;;1.80;1.13;;;;;;;31.74;27.68;98686.06;6951706;28;20206;-80
2022/07/26 09:50:47;;;;;;;4.00;1.50;;;;;;;31.40;27.26;98678.03;6951174;28;20207;-80
2022/07/26 09:54:09;;;;;;;3.00;1.17;;;;;;;31.06;28.42;98681.13;6951897;28;20221;-79
2022/07/26 09:57:31;;;;;;;2.30;1.30;;;;;;;31.63;27.20;98692.38;6951995;28;20317;-79
2022/07/26 10:00:53;;;;;;;3.17;1.20;;;;;;;32.47;26.30;98684.13;6953684;28;20238;-79
2022/07/26 10:04:15;;;;;;;2.33;1.40;;;;;;;31.39;27.15;98672.81;6966934;28;20191;-80
2022/07/26 10:07:39;;;;;;;3.07;1.13;;;;;;;32.18;26.05;98701.91;6968161;28;20211;-80
2022/07/26 10:11:03;;;;;;;1.03;0.90;;;;;;;31.89;25.77;98690.97;6950910;28;20234;-79
2022/07/26 10:14:37;;;;;;;2.17;1.53;;;;;;;31.85;26.34;98697.59;6952803;28;20260;-79
2022/07/26 10:17:59;;;;;;;2.47;1.50;;;;;;;31.10;27.73;98707.16;6951776;28;20195;-80
2022/07/26 10:21:22;;;;;;;4.13;1.10;;;;;;;31.09;27.72;98686.03;6952084;28;20314;-80
2022/07/26 10:24:45;;;;;;;1.83;1.60;;;;;;;31.45;27.14;98702.09;6952340;28;20207;-80
2022/07/26 10:28:23;;;;;;;3.00;1.30;;;;;;;31.49;27.66;98709.41;6952062;28;20271;-80
2022/07/26 10:31:46;;;;;;;1.47;1.03;;;;;;;30.89;28.01;98667.34;6951075;28;20221;-79
2022/07/26 10:35:31;;;;;;;2.10;1.13;;;;;;;31.09;27.16;98696.34;6952374;28;20277;-79
2022/07/26 10:39:15;;;;;;;4.10;1.63;;;;;;;31.20;28.02;98715.09;6952016;28;20562;-79
2022/07/26 10:42:44;;;;;;;2.03;1.20;;;;;;;31.52;27.29;98716.28;6946563;28;20231;-80
2022/07/26 10:46:27;;;;;;;3.17;1.60;;;;;;;32.28;26.60;98709.88;6948922;28;20244;-78
2022/07/26 10:49:57;;;;;;;3.23;1.40;;;;;;;32.30;26.31;98701.94;6947869;28;20200;-78
2022/07/26 10:53:20;;;;;;;3.67;1.50;;;;;;;31.89;27.14;98712.47;6942653;28;20603;-79
2022/07/26 10:56:41;;;;;;;2.93;1.30;;;;;;;32.34;26.41;98714.06;6948298;28;20231;-78
2022/07/26 11:00:12;;;;;;;2.63;1.37;;;;;;;32.10;26.78;98708.44;6947757;28;20230;-78
2022/07/26 11:03:37;;;;;;;2.20;1.27;;;;;;;32.91;26.06;98711.91;6948703;28;20776;-79
2022/07/26 11:07:00;;;;;;;2.30;1.30;;;;;;;32.29;27.06;98700.31;6953310;28;20676;-79
2022/07/26 11:10:24;;;;;;;5.83;1.80;;;;;;;32.91;25.93;98705.50;6955266;28;20237;-78
2022/07/26 11:13:45;;;;;;;2.33;1.20;;;;;;;32.95;25.33;98701.66;6960464;28;20254;-79
2022/07/26 11:17:08;;;;;;;1.57;1.20;;;;;;;32.78;25.61;98704.72;6964189;28;20226;-78
2022/07/26 11:20:30;;;;;;;2.73;1.40;;;;;;;33.49;24.48;98702.84;6948411;28;20196;-79
2022/07/26 11:23:54;;;;;;;4.37;1.40;;;;;;;32.06;25.75;98703.88;6948841;28;20211;-80
2022/07/26 11:27:15;;;;;;;1.60;1.10;;;;;;;32.35;25.67;98703.69;6949216;28;20203;-79
2022/07/26 11:30:55;;;;;;;2.27;1.13;;;;;;;32.75;24.52;98699.00;6951125;28;20206;-79
2022/07/26 11:34:21;;;;;;;2.30;1.33;;;;;;;31.42;26.65;98703.59;6953440;28;20210;-79
2022/07/26 11:37:52;;;;;;;3.60;1.60;;;;;;;30.95;26.94;98710.53;6952515;28;20239;-79
2022/07/26 11:41:15;;;;;;;1.80;1.20;;;;;;;31.33;25.92;98691.72;6953310;28;20241;-79
2022/07/26 11:44:37;;;;;;;2.87;1.33;;;;;;;32.36;25.51;98667.06;6953716;28;20293;-80
2022/07/26 11:47:58;;;;;;;1.27;1.10;;;;;;;32.61;25.05;98701.34;6952810;28;20311;-78
2022/07/26 11:51:23;;;;;;;1.03;0.80;;;;;;;33.09;24.23;98699.28;6953510;28;20266;-79
2022/07/26 11:54:46;;;;;;;1.90;1.60;;;;;;;32.23;25.04;98703.66;6952949;28;20214;-79
2022/07/26 11:58:08;;;;;;;3.27;1.40;;;;;;;32.09;25.64;98695.66;6952134;28;20235;-78
2022/07/26 12:01:29;;;;;;;2.80;1.07;;;;;;;32.88;24.15;98703.41;6952517;28;20253;-79
2022/07/26 12:05:14;;;;;;;1.73;1.23;;;;;;;32.81;23.98;98698.44;6952638;28;20212;-79
2022/07/26 12:08:41;;;;;;;1.57;1.20;;;;;;;32.75;23.93;98707.38;6952038;28;20282;-79
2022/07/26 12:12:05;;;;;;;1.63;1.10;;;;;;;33.18;23.13;98694.34;6952430;28;20222;-78
2022/07/26 12:15:27;;;;;;;3.30;1.10;;;;;;;32.58;23.71;98700.06;6974233;28;20265;-79
2022/07/26 12:18:51;;;;;;;2.10;1.27;;;;;;;31.86;24.25;98688.88;6956385;28;20214;-79
2022/07/26 12:22:14;;;;;;;1.97;1.50;;;;;;;31.37;24.75;98686.28;6952346;28;20248;-79
2022/07/26 12:25:38;;;;;;;3.50;1.43;;;;;;;30.81;26.64;98681.34;6951785;28;20737;-78
2022/07/26 12:29:23;;;;;;;1.47;1.00;;;;;;;31.64;25.11;98688.44;6951894;28;20679;-79
2022/07/26 12:32:43;;;;;;;1.00;0.90;;;;;;;31.67;24.71;98693.34;6949838;28;20689;-79
2022/07/26 12:36:17;;;;;;;3.73;1.20;;;;;;;32.82;23.24;98685.25;6954360;28;20215;-79
2022/07/26 12:39:39;;;;;;;2.03;1.30;;;;;;;32.04;23.42;98689.47;6951648;28;20201;-81
2022/07/26 12:43:02;;;;;;;1.80;1.03;;;;;;;32.26;23.48;98673.09;6953942;28;20277;-80
2022/07/26 12:46:24;;;;;;;1.27;0.90;;;;;;;32.26;23.47;98700.22;6954545;28;20206;-80
2022/07/26 12:49:46;;;;;;;2.40;1.30;;;;;;;32.69;22.68;98678.88;6953420;28;20238;-79
2022/07/26 12:53:08;;;;;;;4.17;1.40;;;;;;;32.10;23.78;98669.38;6953442;28;20258;-80
2022/07/26 12:56:30;;;;;;;1.00;0.90;;;;;;;32.15;23.58;98680.31;6931374;28;20255;-80
2022/07/26 12:59:53;;;;;;;2.50;1.27;;;;;;;32.51;22.28;98680.31;6925247;28;20215;-80
2022/07/26 13:03:15;;;;;;;1.53;1.23;;;;;;;32.30;22.60;98674.03;6924062;28;20239;-79
2022/07/26 13:06:36;;;;;;;2.50;1.20;;;;;;;32.53;22.34;98677.16;6923795;28;20350;-79
2022/07/26 13:09:58;;;;;;;2.30;1.10;;;;;;;33.59;21.83;98671.59;6922956;28;20262;-79
2022/07/26 13:13:20;;;;;;;0.97;0.87;;;;;;;32.66;22.84;98671.19;6923053;28;20292;-79
2022/07/26 13:16:43;;;;;;;0.93;0.90;;;;;;;31.15;23.47;98630.91;6924454;28;20370;-79
2022/07/26 13:20:05;;;;;;;1.53;1.13;;;;;;;30.16;24.72;98675.53;6924293;28;20277;-80
2022/07/26 13:23:27;;;;;;;2.60;1.17;;;;;;;31.21;23.67;98635.13;6924654;28;20232;-79
2022/07/26 13:26:48;;;;;;;1.10;0.93;;;;;;;32.10;23.19;98668.53;6925261;28;20207;-79
2022/07/26 13:30:11;;;;;;;0.70;0.70;;;;;;;31.40;23.63;98655.75;6924007;28;20212;-80
2022/07/26 13:33:34;;;;;;;1.10;1.00;;;;;;;31.18;23.15;98661.72;6924173;28;20237;-80
2022/07/26 13:36:56;;;;;;;1.60;1.17;;;;;;;32.53;21.91;98638.88;6924335;28;20223;-80
2022/07/26 13:40:17;;;;;;;1.57;1.10;;;;;;;32.50;21.15;98656.34;6923447;28;20203;-80
2022/07/26 13:43:39;;;;;;;2.30;1.00;;;;;;;32.76;20.75;98655.97;6923826;28;20321;-80
2022/07/26 13:47:01;;;;;;;1.53;1.10;;;;;;;32.29;21.85;98650.09;6924219;28;20238;-80
2022/07/26 13:50:24;;;;;;;2.53;1.10;;;;;;;32.11;21.88;98631.09;6923233;28;20225;-79
2022/07/26 13:53:45;;;;;;;2.60;1.00;;;;;;;32.92;21.46;98649.28;6922455;28;20234;-80
2022/07/26 13:57:07;;;;;;;1.20;0.90;;;;;;;32.94;20.86;98641.34;6923570;28;20254;-80
2022/07/26 14:00:29;;;;;;;2.57;1.47;;;;;;;32.71;20.30;98617.91;6922316;28;20209;-79
2022/07/26 14:03:51;;;;;;;2.47;1.10;;;;;;;32.82;21.08;98647.00;6922995;28;20258;-79
2022/07/26 14:07:14;;;;;;;1.97;0.90;;;;;;;32.22;21.54;98633.09;6922592;28;20199;-80
2022/07/26 14:10:38;;;;;;;1.70;1.03;;;;;;;31.78;22.40;98628.44;6922859;28;20587;-80
2022/07/26 14:14:00;;;;;;;2.63;0.90;;;;;;;32.08;22.28;98631.81;6923230;28;20218;-79
2022/07/26 14:17:21;;;;;;;1.10;1.00;;;;;;;31.28;23.67;98639.00;6931426;28;20250;-80
2022/07/26 14:20:43;;;;;;;1.47;1.10;;;;;;;32.37;21.61;98632.38;6926191;28;20690;-79
2022/07/26 14:24:06;;;;;;;4.10;1.00;;;;;;;33.07;21.69;98634.53;6940298;28;20218;-80
2022/07/26 14:27:28;;;;;;;2.77;1.40;;;;;;;33.19;21.68;98633.69;6930767;28;20237;-80
2022/07/26 14:30:49;;;;;;;1.73;1.20;;;;;;;33.75;20.93;98636.06;6921602;28;20806;-80
2022/07/26 14:34:11;;;;;;;2.30;1.30;;;;;;;32.05;22.64;98638.91;6922115;28;20242;-79
2022/07/26 14:37:32;;;;;;;1.13;1.03;;;;;;;32.33;22.52;98639.88;6921367;28;20700;-79
2022/07/26 14:40:56;;;;;;;2.67;1.23;;;;;;;32.68;22.49;98643.75;6921051;28;20306;-79
2022/07/26 14:44:17;;;;;;;1.57;1.30;;;;;;;31.38;21.99;98610.66;6921654;28;20217;-79
2022/07/26 14:47:39;;;;;;;2.43;1.07;;;;;;;32.68;21.39;98627.00;6921344;28;20219;-79
2022/07/26 14:51:01;;;;;;;1.00;0.80;;;;;;;32.88;21.34;98634.41;6921978;28;20235;-79
2022/07/26 14:54:22;;;;;;;1.23;1.13;;;;;;;32.48;21.28;98630.75;6922376;28;20218;-79
2022/07/26 14:57:45;;;;;;;2.13;1.30;;;;;;;32.61;22.00;98634.34;6923911;28;20230;-79
2022/07/26 15:01:07;;;;;;;1.37;0.93;;;;;;;32.44;21.50;98640.19;6921991;28;20287;-80
2022/07/26 15:04:29;;;;;;;0.80;0.77;;;;;;;32.15;21.25;98641.25;6925386;28;20212;-80
2022/07/26 15:07:50;;;;;;;1.33;1.03;;;;;;;33.05;20.65;98633.28;6928752;28;20215;-79
2022/07/26 15:11:12;;;;;;;1.03;0.97;;;;;;;32.76;22.03;98622.44;6928617;28;20259;-79
2022/07/26 15:14:35;;;;;;;2.20;1.00;;;;;;;32.98;22.71;98619.09;6928359;28;20219;-80
2022/07/26 15:17:57;;;;;;;1.57;1.10;;;;;;;31.42;23.76;98630.34;6928135;28;20318;-79
2022/07/26 15:21:19;;;;;;;3.53;1.20;;;;;;;31.03;23.66;98630.88;6928561;28;20227;-79
2022/07/26 15:24:40;;;;;;;1.83;0.83;;;;;;;30.78;24.10;98620.78;6937998;28;20187;-80
2022/07/26 15:28:02;;;;;;;2.23;1.10;;;;;;;30.66;24.05;98618.75;6945778;28;20218;-80
2022/07/26 15:31:26;;;;;;;1.63;1.13;;;;;;;30.92;24.03;98616.56;6939378;28;20841;-79
2022/07/26 15:34:47;;;;;;;1.90;1.10;;;;;;;31.85;23.14;98617.50;6926736;28;20205;-80
2022/07/26 15:38:09;;;;;;;3.60;1.20;;;;;;;31.63;23.12;98614.31;6926423;28;20233;-79
2022/07/26 15:41:30;;;;;;;1.63;0.73;;;;;;;31.88;22.80;98616.81;6926003;28;20237;-80
2022/07/26 15:44:52;;;;;;;1.10;1.00;;;;;;;32.04;21.88;98612.19;6926430;28;20207;-80
2022/07/26 15:48:15;;;;;;;1.47;1.10;;;;;;;32.12;21.53;98602.88;6926695;28;20231;-80
2022/07/26 15:51:37;;;;;;;1.80;1.20;;;;;;;31.62;21.70;98609.91;6926429;28;20238;-80
2022/07/26 15:54:58;;;;;;;1.17;1.07;;;;;;;32.35;21.92;98615.19;6925804;28;20352;-80
2022/07/26 15:58:20;;;;;;;2.00;1.20;;;;;;;32.73;21.99;98603.59;6926826;28;20325;-80
2022/07/26 16:01:42;;;;;;;3.00;0.90;;;;;;;32.01;22.60;98568.22;6926060;28;20298;-79